Terminal Aerodrome Forecast
Issued by NWS

Home | Current Version | Previous Version | Text Only | Print | Product List | Glossary On
Versions: 1 2 3 4 5 6 7 8 9 10 11 12 13
000
FTUS43 KLSX 032300
TAFCPS
TAF
KCPS 032334Z 0400/0424 19010G18KT P6SM SCT100 BKN250
     FM040100 17006KT P6SM SCT120 BKN250
     FM041500 21010G18KT P6SM FEW050 SCT120 BKN250=

USA.gov is the U.S. government's official web portal to all federal, state and local government web resources and services.